sensor_id;sensor_type;location;lat;lon;timestamp;temperature;humidity
13322;DHT22;6730;46.248;6.930;2022-10-30T00:00:32;16.30;99.40
13322;DHT22;6730;46.248;6.930;2022-10-30T00:02:58;16.30;99.50
13322;DHT22;6730;46.248;6.930;2022-10-30T00:05:25;16.30;99.60
13322;DHT22;6730;46.248;6.930;2022-10-30T00:07:51;16.40;99.30
13322;DHT22;6730;46.248;6.930;2022-10-30T00:10:17;16.40;99.40
13322;DHT22;6730;46.248;6.930;2022-10-30T00:12:43;16.50;99.00
13322;DHT22;6730;46.248;6.930;2022-10-30T00:15:09;16.40;99.30
13322;DHT22;6730;46.248;6.930;2022-10-30T00:17:35;16.60;99.00
13322;DHT22;6730;46.248;6.930;2022-10-30T00:20:01;16.60;98.80
13322;DHT22;6730;46.248;6.930;2022-10-30T00:22:27;16.50;99.10
13322;DHT22;6730;46.248;6.930;2022-10-30T00:24:52;16.40;98.70
13322;DHT22;6730;46.248;6.930;2022-10-30T00:27:18;16.40;99.10
13322;DHT22;6730;46.248;6.930;2022-10-30T00:29:44;16.60;98.90
13322;DHT22;6730;46.248;6.930;2022-10-30T00:32:09;16.80;98.80
13322;DHT22;6730;46.248;6.930;2022-10-30T00:34:35;16.90;98.50
13322;DHT22;6730;46.248;6.930;2022-10-30T00:37:01;16.90;98.50
13322;DHT22;6730;46.248;6.930;2022-10-30T00:39:26;16.70;98.70
13322;DHT22;6730;46.248;6.930;2022-10-30T00:41:52;16.70;98.50
13322;DHT22;6730;46.248;6.930;2022-10-30T00:44:39;16.70;98.30
13322;DHT22;6730;46.248;6.930;2022-10-30T00:47:33;16.60;98.40
13322;DHT22;6730;46.248;6.930;2022-10-30T00:50:26;16.50;98.80
13322;DHT22;6730;46.248;6.930;2022-10-30T00:53:02;16.20;99.10
13322;DHT22;6730;46.248;6.930;2022-10-30T00:55:38;16.40;99.00
13322;DHT22;6730;46.248;6.930;2022-10-30T00:58:08;16.30;99.10
13322;DHT22;6730;46.248;6.930;2022-10-30T01:00:35;16.00;99.40
13322;DHT22;6730;46.248;6.930;2022-10-30T01:03:03;16.00;99.50
13322;DHT22;6730;46.248;6.930;2022-10-30T01:05:29;16.20;99.20
13322;DHT22;6730;46.248;6.930;2022-10-30T01:07:56;15.90;99.40
13322;DHT22;6730;46.248;6.930;2022-10-30T01:10:22;16.10;99.40
13322;DHT22;6730;46.248;6.930;2022-10-30T01:12:48;16.30;99.00
13322;DHT22;6730;46.248;6.930;2022-10-30T01:15:16;16.10;99.30
13322;DHT22;6730;46.248;6.930;2022-10-30T01:18:07;15.80;99.40
13322;DHT22;6730;46.248;6.930;2022-10-30T01:21:03;15.90;99.10
13322;DHT22;6730;46.248;6.930;2022-10-30T01:34:58;15.40;99.90
13322;DHT22;6730;46.248;6.930;2022-10-30T01:37:41;15.50;99.90
13322;DHT22;6730;46.248;6.930;2022-10-30T01:40:15;15.50;99.60
13322;DHT22;6730;46.248;6.930;2022-10-30T01:42:50;15.60;99.80
13322;DHT22;6730;46.248;6.930;2022-10-30T01:50:35;15.70;99.50
13322;DHT22;6730;46.248;6.930;2022-10-30T01:56:07;15.80;99.40
13322;DHT22;6730;46.248;6.930;2022-10-30T01:59:28;15.90;99.30
13322;DHT22;6730;46.248;6.930;2022-10-30T02:01:27;15.60;99.60
13322;DHT22;6730;46.248;6.930;2022-10-30T02:03:53;15.60;99.10
13322;DHT22;6730;46.248;6.930;2022-10-30T02:06:19;15.60;99.20
13322;DHT22;6730;46.248;6.930;2022-10-30T02:08:45;15.70;99.30
13322;DHT22;6730;46.248;6.930;2022-10-30T02:11:11;15.90;98.90
13322;DHT22;6730;46.248;6.930;2022-10-30T02:13:37;15.90;99.00
13322;DHT22;6730;46.248;6.930;2022-10-30T02:16:03;15.80;99.00
13322;DHT22;6730;46.248;6.930;2022-10-30T02:18:29;15.80;98.70
13322;DHT22;6730;46.248;6.930;2022-10-30T02:20:55;15.80;98.50
13322;DHT22;6730;46.248;6.930;2022-10-30T02:23:21;15.70;98.50
13322;DHT22;6730;46.248;6.930;2022-10-30T02:25:47;15.80;98.60
13322;DHT22;6730;46.248;6.930;2022-10-30T02:28:12;15.80;98.50
13322;DHT22;6730;46.248;6.930;2022-10-30T02:30:39;15.70;99.00
13322;DHT22;6730;46.248;6.930;2022-10-30T02:33:09;15.90;98.70
13322;DHT22;6730;46.248;6.930;2022-10-30T02:35:35;16.20;98.30
13322;DHT22;6730;46.248;6.930;2022-10-30T02:38:01;16.40;98.20
13322;DHT22;6730;46.248;6.930;2022-10-30T02:40:27;16.40;98.20
13322;DHT22;6730;46.248;6.930;2022-10-30T02:42:54;16.30;98.00
13322;DHT22;6730;46.248;6.930;2022-10-30T02:45:20;16.10;98.20
13322;DHT22;6730;46.248;6.930;2022-10-30T02:47:46;16.00;98.30
13322;DHT22;6730;46.248;6.930;2022-10-30T02:50:12;16.10;98.50
13322;DHT22;6730;46.248;6.930;2022-10-30T02:52:37;16.10;98.40
13322;DHT22;6730;46.248;6.930;2022-10-30T02:55:03;16.10;98.30
13322;DHT22;6730;46.248;6.930;2022-10-30T02:57:29;15.70;99.30
13322;DHT22;6730;46.248;6.930;2022-10-30T02:59:55;15.60;99.10
13322;DHT22;6730;46.248;6.930;2022-10-30T03:02:20;15.60;99.20
13322;DHT22;6730;46.248;6.930;2022-10-30T03:04:46;15.80;98.90
13322;DHT22;6730;46.248;6.930;2022-10-30T03:07:12;16.00;98.40
13322;DHT22;6730;46.248;6.930;2022-10-30T03:09:37;15.70;98.80
13322;DHT22;6730;46.248;6.930;2022-10-30T03:12:04;15.70;98.90
13322;DHT22;6730;46.248;6.930;2022-10-30T03:14:29;15.80;98.60
13322;DHT22;6730;46.248;6.930;2022-10-30T03:16:55;15.70;98.70
13322;DHT22;6730;46.248;6.930;2022-10-30T03:19:27;15.80;98.80
13322;DHT22;6730;46.248;6.930;2022-10-30T03:21:53;15.70;98.70
13322;DHT22;6730;46.248;6.930;2022-10-30T03:24:19;15.90;98.20
13322;DHT22;6730;46.248;6.930;2022-10-30T03:26:46;15.60;98.60
13322;DHT22;6730;46.248;6.930;2022-10-30T03:29:12;15.50;99.10
13322;DHT22;6730;46.248;6.930;2022-10-30T03:31:38;15.50;99.10
13322;DHT22;6730;46.248;6.930;2022-10-30T03:34:03;15.60;98.30
13322;DHT22;6730;46.248;6.930;2022-10-30T03:36:29;15.70;98.90
13322;DHT22;6730;46.248;6.930;2022-10-30T03:38:55;15.80;98.60
13322;DHT22;6730;46.248;6.930;2022-10-30T03:41:21;15.80;98.60
13322;DHT22;6730;46.248;6.930;2022-10-30T03:43:46;15.70;98.60
13322;DHT22;6730;46.248;6.930;2022-10-30T03:46:12;15.70;98.50
13322;DHT22;6730;46.248;6.930;2022-10-30T03:48:38;15.70;98.30
13322;DHT22;6730;46.248;6.930;2022-10-30T03:51:04;15.50;98.90
13322;DHT22;6730;46.248;6.930;2022-10-30T03:53:29;15.60;99.10
13322;DHT22;6730;46.248;6.930;2022-10-30T03:56:03;15.50;99.20
13322;DHT22;6730;46.248;6.930;2022-10-30T03:58:29;15.50;99.40
13322;DHT22;6730;46.248;6.930;2022-10-30T04:01:02;15.30;99.70
13322;DHT22;6730;46.248;6.930;2022-10-30T04:03:28;15.20;99.50
13322;DHT22;6730;46.248;6.930;2022-10-30T04:05:54;15.20;99.20
13322;DHT22;6730;46.248;6.930;2022-10-30T04:08:19;15.10;99.10
13322;DHT22;6730;46.248;6.930;2022-10-30T04:10:46;15.20;99.00
13322;DHT22;6730;46.248;6.930;2022-10-30T04:13:14;15.20;99.20
13322;DHT22;6730;46.248;6.930;2022-10-30T04:15:40;14.90;99.60
13322;DHT22;6730;46.248;6.930;2022-10-30T04:18:11;14.90;99.90
13322;DHT22;6730;46.248;6.930;2022-10-30T04:20:37;14.90;99.90
13322;DHT22;6730;46.248;6.930;2022-10-30T04:23:04;15.10;99.30
13322;DHT22;6730;46.248;6.930;2022-10-30T04:25:32;15.20;99.40
13322;DHT22;6730;46.248;6.930;2022-10-30T04:27:57;15.30;99.20
13322;DHT22;6730;46.248;6.930;2022-10-30T04:30:23;15.30;99.00
13322;DHT22;6730;46.248;6.930;2022-10-30T04:32:55;15.40;99.00
13322;DHT22;6730;46.248;6.930;2022-10-30T04:35:26;15.50;98.70
13322;DHT22;6730;46.248;6.930;2022-10-30T04:37:53;15.50;98.90
13322;DHT22;6730;46.248;6.930;2022-10-30T04:40:20;15.40;99.10
13322;DHT22;6730;46.248;6.930;2022-10-30T04:42:46;15.20;99.50
13322;DHT22;6730;46.248;6.930;2022-10-30T04:45:12;15.30;99.20
13322;DHT22;6730;46.248;6.930;2022-10-30T04:47:38;15.20;99.30
13322;DHT22;6730;46.248;6.930;2022-10-30T04:50:04;15.10;99.30
13322;DHT22;6730;46.248;6.930;2022-10-30T04:52:30;15.10;99.30
13322;DHT22;6730;46.248;6.930;2022-10-30T04:54:56;15.30;99.20
13322;DHT22;6730;46.248;6.930;2022-10-30T04:57:21;15.10;99.30
13322;DHT22;6730;46.248;6.930;2022-10-30T04:59:47;15.10;98.60
13322;DHT22;6730;46.248;6.930;2022-10-30T05:02:13;14.90;99.80
13322;DHT22;6730;46.248;6.930;2022-10-30T05:04:39;15.00;99.40
13322;DHT22;6730;46.248;6.930;2022-10-30T05:07:04;15.10;99.40
13322;DHT22;6730;46.248;6.930;2022-10-30T05:09:31;15.30;99.00
13322;DHT22;6730;46.248;6.930;2022-10-30T05:11:57;15.20;99.10
13322;DHT22;6730;46.248;6.930;2022-10-30T05:14:23;15.00;99.00
13322;DHT22;6730;46.248;6.930;2022-10-30T05:16:49;15.00;99.30
13322;DHT22;6730;46.248;6.930;2022-10-30T05:19:14;14.80;99.80
13322;DHT22;6730;46.248;6.930;2022-10-30T05:21:40;14.70;99.90
13322;DHT22;6730;46.248;6.930;2022-10-30T05:24:06;14.50;99.90
13322;DHT22;6730;46.248;6.930;2022-10-30T05:26:32;14.50;99.90
13322;DHT22;6730;46.248;6.930;2022-10-30T05:28:57;14.80;99.90
13322;DHT22;6730;46.248;6.930;2022-10-30T05:31:23;14.90;99.60
13322;DHT22;6730;46.248;6.930;2022-10-30T05:33:48;14.80;99.70
13322;DHT22;6730;46.248;6.930;2022-10-30T05:36:14;15.00;99.20
13322;DHT22;6730;46.248;6.930;2022-10-30T05:38:40;15.30;98.90
13322;DHT22;6730;46.248;6.930;2022-10-30T05:41:05;15.30;99.40
13322;DHT22;6730;46.248;6.930;2022-10-30T05:43:31;15.10;99.60
13322;DHT22;6730;46.248;6.930;2022-10-30T05:45:57;14.80;99.90
13322;DHT22;6730;46.248;6.930;2022-10-30T05:48:22;14.50;99.90
13322;DHT22;6730;46.248;6.930;2022-10-30T05:50:48;14.60;99.90
13322;DHT22;6730;46.248;6.930;2022-10-30T05:53:14;14.70;99.90
13322;DHT22;6730;46.248;6.930;2022-10-30T05:55:39;14.90;99.80
13322;DHT22;6730;46.248;6.930;2022-10-30T05:58:06;14.90;99.60
13322;DHT22;6730;46.248;6.930;2022-10-30T06:00:33;15.20;99.30
13322;DHT22;6730;46.248;6.930;2022-10-30T06:03:00;15.00;99.30
13322;DHT22;6730;46.248;6.930;2022-10-30T06:05:29;14.80;99.60
13322;DHT22;6730;46.248;6.930;2022-10-30T06:07:55;14.80;99.80
13322;DHT22;6730;46.248;6.930;2022-10-30T06:10:22;14.70;99.90
13322;DHT22;6730;46.248;6.930;2022-10-30T06:15:20;14.60;99.90
13322;DHT22;6730;46.248;6.930;2022-10-30T06:17:45;14.80;99.90
13322;DHT22;6730;46.248;6.930;2022-10-30T06:20:11;14.60;99.30
13322;DHT22;6730;46.248;6.930;2022-10-30T06:22:36;14.20;99.90
13322;DHT22;6730;46.248;6.930;2022-10-30T06:25:02;14.20;99.90
13322;DHT22;6730;46.248;6.930;2022-10-30T06:27:28;14.20;99.90
13322;DHT22;6730;46.248;6.930;2022-10-30T06:29:54;14.40;99.90
13322;DHT22;6730;46.248;6.930;2022-10-30T06:32:20;14.20;99.90
13322;DHT22;6730;46.248;6.930;2022-10-30T06:34:46;14.40;99.90
13322;DHT22;6730;46.248;6.930;2022-10-30T06:37:12;14.70;99.90
13322;DHT22;6730;46.248;6.930;2022-10-30T06:39:37;14.80;99.80
13322;DHT22;6730;46.248;6.930;2022-10-30T06:42:04;15.00;99.50
13322;DHT22;6730;46.248;6.930;2022-10-30T06:44:30;15.20;99.20
13322;DHT22;6730;46.248;6.930;2022-10-30T06:46:55;15.10;99.40
13322;DHT22;6730;46.248;6.930;2022-10-30T06:49:21;14.80;99.90
13322;DHT22;6730;46.248;6.930;2022-10-30T06:51:47;14.70;99.90
13322;DHT22;6730;46.248;6.930;2022-10-30T06:54:13;14.40;99.90
13322;DHT22;6730;46.248;6.930;2022-10-30T06:56:39;14.40;99.90
13322;DHT22;6730;46.248;6.930;2022-10-30T06:59:05;14.60;99.90
13322;DHT22;6730;46.248;6.930;2022-10-30T07:01:30;14.60;99.90
13322;DHT22;6730;46.248;6.930;2022-10-30T07:03:56;14.70;99.90
13322;DHT22;6730;46.248;6.930;2022-10-30T07:06:21;14.90;99.90
13322;DHT22;6730;46.248;6.930;2022-10-30T07:08:47;15.20;99.90
13322;DHT22;6730;46.248;6.930;2022-10-30T07:11:13;15.10;99.90
13322;DHT22;6730;46.248;6.930;2022-10-30T07:13:39;14.80;99.90
13322;DHT22;6730;46.248;6.930;2022-10-30T07:16:05;14.80;99.90
13322;DHT22;6730;46.248;6.930;2022-10-30T07:18:30;14.80;99.90
13322;DHT22;6730;46.248;6.930;2022-10-30T07:20:56;14.80;99.90
13322;DHT22;6730;46.248;6.930;2022-10-30T07:23:22;14.80;99.90
13322;DHT22;6730;46.248;6.930;2022-10-30T07:25:48;14.80;99.90
13322;DHT22;6730;46.248;6.930;2022-10-30T07:28:13;14.90;99.90
13322;DHT22;6730;46.248;6.930;2022-10-30T07:30:39;15.20;99.90
13322;DHT22;6730;46.248;6.930;2022-10-30T07:33:06;15.20;99.90
13322;DHT22;6730;46.248;6.930;2022-10-30T07:35:33;15.50;99.90
13322;DHT22;6730;46.248;6.930;2022-10-30T07:38:04;16.10;99.90
13322;DHT22;6730;46.248;6.930;2022-10-30T07:40:30;16.60;99.90
13322;DHT22;6730;46.248;6.930;2022-10-30T07:42:57;17.00;99.90
13322;DHT22;6730;46.248;6.930;2022-10-30T07:45:23;17.00;99.90
13322;DHT22;6730;46.248;6.930;2022-10-30T07:47:49;17.10;99.90
13322;DHT22;6730;46.248;6.930;2022-10-30T07:50:14;17.00;99.90
13322;DHT22;6730;46.248;6.930;2022-10-30T07:52:40;17.20;99.90
13322;DHT22;6730;46.248;6.930;2022-10-30T07:55:06;17.30;99.90
13322;DHT22;6730;46.248;6.930;2022-10-30T07:57:36;17.40;99.50
13322;DHT22;6730;46.248;6.930;2022-10-30T08:00:07;17.20;99.40
13322;DHT22;6730;46.248;6.930;2022-10-30T08:02:33;17.60;99.90
13322;DHT22;6730;46.248;6.930;2022-10-30T08:04:59;17.80;98.70
13322;DHT22;6730;46.248;6.930;2022-10-30T08:07:32;18.10;99.90
13322;DHT22;6730;46.248;6.930;2022-10-30T08:09:58;17.40;99.60
13322;DHT22;6730;46.248;6.930;2022-10-30T08:12:25;16.60;99.90
13322;DHT22;6730;46.248;6.930;2022-10-30T08:14:51;16.20;99.90
13322;DHT22;6730;46.248;6.930;2022-10-30T08:17:17;16.50;99.90
13322;DHT22;6730;46.248;6.930;2022-10-30T08:19:43;17.40;99.90
13322;DHT22;6730;46.248;6.930;2022-10-30T08:22:09;17.40;99.90
13322;DHT22;6730;46.248;6.930;2022-10-30T08:24:35;17.70;99.90
13322;DHT22;6730;46.248;6.930;2022-10-30T08:27:01;18.60;99.90
13322;DHT22;6730;46.248;6.930;2022-10-30T08:29:26;19.20;99.90
13322;DHT22;6730;46.248;6.930;2022-10-30T08:31:52;19.90;99.90
13322;DHT22;6730;46.248;6.930;2022-10-30T08:34:18;20.30;99.80
13322;DHT22;6730;46.248;6.930;2022-10-30T08:36:43;19.40;99.90
13322;DHT22;6730;46.248;6.930;2022-10-30T08:39:09;19.00;99.80
13322;DHT22;6730;46.248;6.930;2022-10-30T08:41:35;19.00;99.90
13322;DHT22;6730;46.248;6.930;2022-10-30T08:44:00;19.90;99.90
13322;DHT22;6730;46.248;6.930;2022-10-30T08:46:26;20.00;99.90
13322;DHT22;6730;46.248;6.930;2022-10-30T08:48:52;19.80;99.90
13322;DHT22;6730;46.248;6.930;2022-10-30T08:51:19;19.70;99.90
13322;DHT22;6730;46.248;6.930;2022-10-30T08:53:47;19.60;99.90
13322;DHT22;6730;46.248;6.930;2022-10-30T08:56:14;19.80;99.90
13322;DHT22;6730;46.248;6.930;2022-10-30T08:58:40;18.90;99.90
13322;DHT22;6730;46.248;6.930;2022-10-30T09:01:05;19.20;99.90
13322;DHT22;6730;46.248;6.930;2022-10-30T09:03:31;20.10;99.90
13322;DHT22;6730;46.248;6.930;2022-10-30T09:05:57;19.70;99.50
13322;DHT22;6730;46.248;6.930;2022-10-30T09:08:24;19.00;99.90
13322;DHT22;6730;46.248;6.930;2022-10-30T09:10:54;19.60;99.90
13322;DHT22;6730;46.248;6.930;2022-10-30T09:13:20;19.50;99.90
13322;DHT22;6730;46.248;6.930;2022-10-30T09:15:46;18.70;99.90
13322;DHT22;6730;46.248;6.930;2022-10-30T09:18:11;19.30;99.90
13322;DHT22;6730;46.248;6.930;2022-10-30T09:20:37;19.00;99.90
13322;DHT22;6730;46.248;6.930;2022-10-30T09:23:03;19.30;99.90
13322;DHT22;6730;46.248;6.930;2022-10-30T09:25:29;19.20;99.90
13322;DHT22;6730;46.248;6.930;2022-10-30T09:27:54;19.00;99.90
13322;DHT22;6730;46.248;6.930;2022-10-30T09:30:20;18.60;99.90
13322;DHT22;6730;46.248;6.930;2022-10-30T09:32:53;17.80;99.90
13322;DHT22;6730;46.248;6.930;2022-10-30T09:35:19;18.00;99.90
13322;DHT22;6730;46.248;6.930;2022-10-30T09:37:44;18.30;99.90
13322;DHT22;6730;46.248;6.930;2022-10-30T09:40:18;17.00;99.90
13322;DHT22;6730;46.248;6.930;2022-10-30T09:42:47;17.60;99.90
13322;DHT22;6730;46.248;6.930;2022-10-30T09:45:47;18.40;99.90
13322;DHT22;6730;46.248;6.930;2022-10-30T09:51:45;20.20;99.90
13322;DHT22;6730;46.248;6.930;2022-10-30T10:00:06;20.30;99.90
13322;DHT22;6730;46.248;6.930;2022-10-30T10:05:49;19.50;99.90
13322;DHT22;6730;46.248;6.930;2022-10-30T10:08:25;20.00;99.90
13322;DHT22;6730;46.248;6.930;2022-10-30T10:11:07;18.40;99.90
13322;DHT22;6730;46.248;6.930;2022-10-30T10:13:40;19.00;99.90
13322;DHT22;6730;46.248;6.930;2022-10-30T10:16:19;19.50;99.90
13322;DHT22;6730;46.248;6.930;2022-10-30T10:18:47;20.60;99.90
13322;DHT22;6730;46.248;6.930;2022-10-30T10:21:24;20.30;99.90
13322;DHT22;6730;46.248;6.930;2022-10-30T10:23:56;19.80;99.90
13322;DHT22;6730;46.248;6.930;2022-10-30T10:29:05;20.00;99.90
13322;DHT22;6730;46.248;6.930;2022-10-30T10:37:39;19.70;99.90
13322;DHT22;6730;46.248;6.930;2022-10-30T10:45:33;19.60;99.90
13322;DHT22;6730;46.248;6.930;2022-10-30T10:51:09;19.50;99.90
13322;DHT22;6730;46.248;6.930;2022-10-30T10:53:54;19.10;99.90
13322;DHT22;6730;46.248;6.930;2022-10-30T10:56:28;19.50;99.90
13322;DHT22;6730;46.248;6.930;2022-10-30T10:58:59;19.10;99.90
13322;DHT22;6730;46.248;6.930;2022-10-30T11:01:40;19.30;99.90
13322;DHT22;6730;46.248;6.930;2022-10-30T11:04:14;19.30;99.90
13322;DHT22;6730;46.248;6.930;2022-10-30T11:06:49;19.70;99.90
13322;DHT22;6730;46.248;6.930;2022-10-30T11:09:20;19.10;99.90
13322;DHT22;6730;46.248;6.930;2022-10-30T11:11:48;18.90;99.90
13322;DHT22;6730;46.248;6.930;2022-10-30T11:14:21;18.80;99.90
13322;DHT22;6730;46.248;6.930;2022-10-30T11:19:38;20.00;99.90
13322;DHT22;6730;46.248;6.930;2022-10-30T11:25:32;18.60;99.90
13322;DHT22;6730;46.248;6.930;2022-10-30T11:27:59;19.00;99.90
13322;DHT22;6730;46.248;6.930;2022-10-30T11:30:27;18.30;99.90
13322;DHT22;6730;46.248;6.930;2022-10-30T11:32:57;18.60;99.90
13322;DHT22;6730;46.248;6.930;2022-10-30T11:35:24;18.70;99.90
13322;DHT22;6730;46.248;6.930;2022-10-30T11:38:18;18.80;99.90
13322;DHT22;6730;46.248;6.930;2022-10-30T11:40:50;18.50;99.90
13322;DHT22;6730;46.248;6.930;2022-10-30T11:43:21;18.80;99.90
13322;DHT22;6730;46.248;6.930;2022-10-30T11:45:47;19.10;99.90
13322;DHT22;6730;46.248;6.930;2022-10-30T11:48:28;18.70;99.90
13322;DHT22;6730;46.248;6.930;2022-10-30T11:50:59;18.50;99.90
13322;DHT22;6730;46.248;6.930;2022-10-30T11:53:32;19.00;99.90
13322;DHT22;6730;46.248;6.930;2022-10-30T11:56:16;19.60;99.90
13322;DHT22;6730;46.248;6.930;2022-10-30T11:58:46;19.60;99.90
13322;DHT22;6730;46.248;6.930;2022-10-30T12:01:24;19.50;99.90
13322;DHT22;6730;46.248;6.930;2022-10-30T12:03:52;19.30;99.90
13322;DHT22;6730;46.248;6.930;2022-10-30T12:09:20;18.30;99.90
13322;DHT22;6730;46.248;6.930;2022-10-30T12:11:46;18.20;99.90
13322;DHT22;6730;46.248;6.930;2022-10-30T12:14:20;17.80;99.90
13322;DHT22;6730;46.248;6.930;2022-10-30T12:16:49;17.70;99.90
13322;DHT22;6730;46.248;6.930;2022-10-30T12:19:16;18.00;99.90
13322;DHT22;6730;46.248;6.930;2022-10-30T12:21:48;18.20;99.90
13322;DHT22;6730;46.248;6.930;2022-10-30T12:24:30;17.80;99.90
13322;DHT22;6730;46.248;6.930;2022-10-30T12:27:01;17.40;99.90
13322;DHT22;6730;46.248;6.930;2022-10-30T12:30:06;17.70;99.90
13322;DHT22;6730;46.248;6.930;2022-10-30T12:32:44;17.70;99.90
13322;DHT22;6730;46.248;6.930;2022-10-30T12:37:41;18.10;99.90
13322;DHT22;6730;46.248;6.930;2022-10-30T12:40:29;18.00;99.90
13322;DHT22;6730;46.248;6.930;2022-10-30T12:43:18;18.00;99.90
13322;DHT22;6730;46.248;6.930;2022-10-30T12:45:49;18.00;99.90
13322;DHT22;6730;46.248;6.930;2022-10-30T12:48:29;18.10;99.90
13322;DHT22;6730;46.248;6.930;2022-10-30T12:56:19;18.00;99.90
13322;DHT22;6730;46.248;6.930;2022-10-30T13:01:54;18.60;99.90
13322;DHT22;6730;46.248;6.930;2022-10-30T13:04:25;18.60;99.90
13322;DHT22;6730;46.248;6.930;2022-10-30T13:07:16;18.50;99.90
13322;DHT22;6730;46.248;6.930;2022-10-30T13:09:55;18.50;99.90
13322;DHT22;6730;46.248;6.930;2022-10-30T13:12:26;18.60;99.90
13322;DHT22;6730;46.248;6.930;2022-10-30T13:15:04;18.50;99.90
13322;DHT22;6730;46.248;6.930;2022-10-30T13:17:33;18.40;99.90
13322;DHT22;6730;46.248;6.930;2022-10-30T13:19:59;18.30;99.90
13322;DHT22;6730;46.248;6.930;2022-10-30T13:24:56;18.10;99.90
13322;DHT22;6730;46.248;6.930;2022-10-30T13:30:24;18.40;99.90
13322;DHT22;6730;46.248;6.930;2022-10-30T13:35:52;18.20;99.90
13322;DHT22;6730;46.248;6.930;2022-10-30T13:52:14;18.90;99.90
13322;DHT22;6730;46.248;6.930;2022-10-30T13:57:41;18.00;99.90
13322;DHT22;6730;46.248;6.930;2022-10-30T14:03:04;18.00;99.90
13322;DHT22;6730;46.248;6.930;2022-10-30T14:08:35;18.20;99.90
13322;DHT22;6730;46.248;6.930;2022-10-30T14:11:04;18.10;99.90
13322;DHT22;6730;46.248;6.930;2022-10-30T14:16:44;19.20;99.90
13322;DHT22;6730;46.248;6.930;2022-10-30T14:19:17;19.60;99.90
13322;DHT22;6730;46.248;6.930;2022-10-30T14:21:55;19.70;99.90
13322;DHT22;6730;46.248;6.930;2022-10-30T14:24:27;19.60;99.90
13322;DHT22;6730;46.248;6.930;2022-10-30T14:39:54;18.80;99.90
13322;DHT22;6730;46.248;6.930;2022-10-30T14:42:31;18.60;99.90
13322;DHT22;6730;46.248;6.930;2022-10-30T14:48:21;18.10;99.90
13322;DHT22;6730;46.248;6.930;2022-10-30T15:13:21;18.40;99.90
13322;DHT22;6730;46.248;6.930;2022-10-30T15:15:59;18.50;99.90
13322;DHT22;6730;46.248;6.930;2022-10-30T15:18:25;18.70;99.90
13322;DHT22;6730;46.248;6.930;2022-10-30T15:20:53;18.80;99.90
13322;DHT22;6730;46.248;6.930;2022-10-30T15:23:27;18.90;99.90
13322;DHT22;6730;46.248;6.930;2022-10-30T15:25:59;18.70;99.90
13322;DHT22;6730;46.248;6.930;2022-10-30T15:28:27;18.90;99.90
13322;DHT22;6730;46.248;6.930;2022-10-30T15:33:28;19.10;99.90
13322;DHT22;6730;46.248;6.930;2022-10-30T15:36:00;18.80;99.90
13322;DHT22;6730;46.248;6.930;2022-10-30T15:38:26;18.40;99.90
13322;DHT22;6730;46.248;6.930;2022-10-30T15:41:01;18.30;99.90
13322;DHT22;6730;46.248;6.930;2022-10-30T15:43:31;18.10;99.90
13322;DHT22;6730;46.248;6.930;2022-10-30T15:45:58;18.00;99.90
13322;DHT22;6730;46.248;6.930;2022-10-30T15:56:25;17.90;99.90
13322;DHT22;6730;46.248;6.930;2022-10-30T15:59:03;17.80;99.90
13322;DHT22;6730;46.248;6.930;2022-10-30T16:03:57;17.60;99.90
13322;DHT22;6730;46.248;6.930;2022-10-30T16:06:28;17.70;99.90
13322;DHT22;6730;46.248;6.930;2022-10-30T16:08:54;17.70;99.90
13322;DHT22;6730;46.248;6.930;2022-10-30T16:11:20;17.70;99.90
13322;DHT22;6730;46.248;6.930;2022-10-30T16:13:47;17.60;99.90
13322;DHT22;6730;46.248;6.930;2022-10-30T16:18:43;17.50;99.90
13322;DHT22;6730;46.248;6.930;2022-10-30T16:21:11;17.30;99.90
13322;DHT22;6730;46.248;6.930;2022-10-30T16:23:40;17.20;99.90
13322;DHT22;6730;46.248;6.930;2022-10-30T16:26:11;17.10;99.90
13322;DHT22;6730;46.248;6.930;2022-10-30T16:28:47;17.10;99.90
13322;DHT22;6730;46.248;6.930;2022-10-30T16:31:13;17.10;99.90
13322;DHT22;6730;46.248;6.930;2022-10-30T16:33:40;17.10;99.90
13322;DHT22;6730;46.248;6.930;2022-10-30T16:36:11;17.10;99.90
13322;DHT22;6730;46.248;6.930;2022-10-30T16:38:42;17.00;99.90
13322;DHT22;6730;46.248;6.930;2022-10-30T16:41:09;17.00;99.90
13322;DHT22;6730;46.248;6.930;2022-10-30T16:43:39;17.20;99.90
13322;DHT22;6730;46.248;6.930;2022-10-30T16:48:55;17.20;99.90
13322;DHT22;6730;46.248;6.930;2022-10-30T16:51:22;17.20;99.90
13322;DHT22;6730;46.248;6.930;2022-10-30T16:53:49;17.20;99.70
13322;DHT22;6730;46.248;6.930;2022-10-30T16:56:29;17.40;99.90
13322;DHT22;6730;46.248;6.930;2022-10-30T16:59:07;17.80;99.80
13322;DHT22;6730;46.248;6.930;2022-10-30T17:01:36;17.70;99.60
13322;DHT22;6730;46.248;6.930;2022-10-30T17:04:03;17.70;99.50
13322;DHT22;6730;46.248;6.930;2022-10-30T17:06:39;17.80;99.40
13322;DHT22;6730;46.248;6.930;2022-10-30T17:09:20;17.90;99.50
13322;DHT22;6730;46.248;6.930;2022-10-30T17:12:01;18.10;99.30
13322;DHT22;6730;46.248;6.930;2022-10-30T17:14:28;17.90;99.20
13322;DHT22;6730;46.248;6.930;2022-10-30T17:16:56;17.60;99.30
13322;DHT22;6730;46.248;6.930;2022-10-30T17:22:08;17.10;99.40
13322;DHT22;6730;46.248;6.930;2022-10-30T17:24:36;17.00;99.40
13322;DHT22;6730;46.248;6.930;2022-10-30T17:27:32;17.00;99.60
13322;DHT22;6730;46.248;6.930;2022-10-30T17:29:59;17.10;99.40
13322;DHT22;6730;46.248;6.930;2022-10-30T17:32:26;16.80;99.50
13322;DHT22;6730;46.248;6.930;2022-10-30T17:35:15;16.90;99.50
13322;DHT22;6730;46.248;6.930;2022-10-30T17:37:41;17.00;99.40
13322;DHT22;6730;46.248;6.930;2022-10-30T17:40:08;17.00;98.90
13322;DHT22;6730;46.248;6.930;2022-10-30T17:42:33;17.00;99.40
13322;DHT22;6730;46.248;6.930;2022-10-30T17:44:59;17.00;99.50
13322;DHT22;6730;46.248;6.930;2022-10-30T17:47:25;16.90;99.50
13322;DHT22;6730;46.248;6.930;2022-10-30T17:49:51;16.90;99.30
13322;DHT22;6730;46.248;6.930;2022-10-30T17:52:18;16.80;99.20
13322;DHT22;6730;46.248;6.930;2022-10-30T17:54:47;16.70;99.40
13322;DHT22;6730;46.248;6.930;2022-10-30T17:57:14;16.70;99.40
13322;DHT22;6730;46.248;6.930;2022-10-30T17:59:41;16.60;99.30
13322;DHT22;6730;46.248;6.930;2022-10-30T18:02:17;16.60;99.50
13322;DHT22;6730;46.248;6.930;2022-10-30T18:04:44;16.70;99.40
13322;DHT22;6730;46.248;6.930;2022-10-30T18:07:11;16.70;99.40
13322;DHT22;6730;46.248;6.930;2022-10-30T18:09:38;16.70;99.40
13322;DHT22;6730;46.248;6.930;2022-10-30T18:12:12;16.90;99.20
13322;DHT22;6730;46.248;6.930;2022-10-30T18:14:38;16.90;98.90
13322;DHT22;6730;46.248;6.930;2022-10-30T18:17:04;16.90;99.30
13322;DHT22;6730;46.248;6.930;2022-10-30T18:19:30;16.70;99.50
13322;DHT22;6730;46.248;6.930;2022-10-30T18:21:56;16.60;99.60
13322;DHT22;6730;46.248;6.930;2022-10-30T18:24:22;16.60;99.50
13322;DHT22;6730;46.248;6.930;2022-10-30T18:26:47;16.60;99.40
13322;DHT22;6730;46.248;6.930;2022-10-30T18:29:13;16.50;99.20
13322;DHT22;6730;46.248;6.930;2022-10-30T18:31:39;16.50;99.20
13322;DHT22;6730;46.248;6.930;2022-10-30T18:34:16;16.50;99.30
13322;DHT22;6730;46.248;6.930;2022-10-30T18:36:43;16.50;99.10
13322;DHT22;6730;46.248;6.930;2022-10-30T18:39:08;16.60;99.00
13322;DHT22;6730;46.248;6.930;2022-10-30T18:41:43;16.60;98.90